Home > Products > Valid Products > TAF

000
FTUS43 KFGF 011100
TAFGFK
TAF
KGFK 011122Z 0112/0212 17017KT P6SM FEW200
     FM011600 17020G28KT P6SM SCT250
     FM012300 16011KT P6SM FEW250=



000
FTUS43 KFGF 011100
TAFFAR
TAF
KFAR 011122Z 0112/0212 16016KT P6SM FEW200
     FM011600 16020G28KT P6SM SCT250
     FM012300 16011KT P6SM FEW250=



000
FTUS43 KFGF 010600 AAA
TAFGFK
TAF AMD
KGFK 010659Z 0107/0206 17017KT P6SM BKN200
     FM011600 17020G28KT P6SM SCT250
     FM012300 16013KT P6SM BKN250=



000
FTUS43 KFGF 010500
TAFFAR
TAF
KFAR 010522Z 0106/0206 16016KT P6SM BKN200
     FM011600 16022G30KT P6SM SCT250=



000
FTUS43 KFGF 010500
TAFGFK
TAF
KGFK 010522Z 0106/0206 17013KT P6SM BKN200
     FM011600 17020G28KT P6SM SCT250
     FM012300 16013KT P6SM BKN250=



000
FTUS43 KFGF 312300
TAFFAR
TAF
KFAR 312339Z 0100/0124 16011KT P6SM SKC
     FM010600 16016KT P6SM FEW250
     FM011600 16022G30KT P6SM SCT250=



000
FTUS43 KFGF 312300
TAFGFK
TAF
KGFK 312339Z 0100/0124 17009KT P6SM SCT250
     FM010600 16015KT P6SM SCT250
     FM011600 17020G28KT P6SM SCT250=



000
FTUS43 KFGF 311700
TAFFAR
TAF
KFAR 311720Z 3118/0118 17006KT P6SM SKC
     FM010600 16016KT P6SM FEW250
     FM011600 16022G30KT P6SM SCT250=



000
FTUS43 KFGF 311700
TAFGFK
TAF
KGFK 311720Z 3118/0118 16009KT P6SM FEW250
     FM010600 16015KT P6SM SCT250
     FM011600 17019G28KT P6SM SCT250=



000
FTUS43 KFGF 311100
TAFFAR
TAF
KFAR 311133Z 3112/0112 VRB03KT P6SM SKC
     FM311800 17010KT P6SM SKC
     FM010600 16016KT P6SM SKC=



000
FTUS43 KFGF 311100
TAFGFK
TAF
KGFK 311133Z 3112/0112 VRB03KT P6SM SKC
     FM311800 17010KT P6SM SKC
     FM010600 16015KT P6SM SKC=



000
FTUS43 KFGF 310500
TAFFAR
TAF
KFAR 310520Z 3106/0106 33007KT P6SM SKC
     FM311800 17013KT P6SM SKC=



000
FTUS43 KFGF 310500
TAFGFK
TAF
KGFK 310520Z 3106/0106 30005KT P6SM SKC
     FM311800 17013KT P6SM SKC=



000
FTUS43 KFGF 302300
TAFFAR
TAF
KFAR 302320Z 3100/3124 35020G27KT P6SM SCT040
     FM310200 35008KT P6SM SKC
     FM311800 17011KT P6SM SCT250=



000
FTUS43 KFGF 302300
TAFGFK
TAF
KGFK 302320Z 3100/3124 35018KT P6SM SCT060
     FM310200 36008KT P6SM SKC
     FM311800 17012KT P6SM SKC=



000
FTUS43 KFGF 302000 AAA
TAFGFK
TAF AMD
KGFK 302012Z 3020/3118 35020G27KT P6SM OVC035
     FM310100 36011KT P6SM SKC
     FM311600 17010KT P6SM SCT250=



000
FTUS43 KFGF 301700
TAFGFK
TAF
KGFK 301739Z 3018/3118 35020G27KT P6SM OVC028
     FM310100 36011KT P6SM SKC
     FM311600 17010KT P6SM SCT250=



000
FTUS43 KFGF 301700
TAFFAR
TAF
KFAR 301739Z 3018/3118 36017G25KT P6SM BKN018
      TEMPO 3018/3020 OVC025
     FM302000 35020G27KT P6SM BKN025
     FM310100 35010KT P6SM SKC
     FM311600 16005KT P6SM SCT250=



000
FTUS43 KFGF 301700
TAFGFK
TAF
KGFK 301739Z 3018/3118 35020G27KT P6SM OVC028
     FM310100 36011KT P6SM SKC
     FM311600 17010KT P6SM SCT250=



000
FTUS43 KFGF 301700
TAFFAR
TAF
KFAR 301739Z 3018/3118 36017G25KT P6SM BKN018
      TEMPO 3018/3020 OVC025
     FM302000 35020G27KT P6SM BKN025
     FM310100 35010KT P6SM SKC
     FM311600 16005KT P6SM SCT250=



000
FTUS43 KFGF 301600 AAB
TAFFAR
TAF AMD
KFAR 301633Z 3017/3112 36017G25KT P6SM OVC018
     FM302000 35020G27KT P6SM BKN025
     FM302300 35010G15KT P6SM SCT035
     FM310200 35007KT P6SM SKC=



000
FTUS43 KFGF 301600 AAB
TAFFAR
TAF AMD
KFAR 301633Z 3017/3112 36017G25KT P6SM OVC018
     FM302000 35020G27KT P6SM BKN025
     FM302300 35010G15KT P6SM SCT035
     FM310200 35007KT P6SM SKC=



000
FTUS43 KFGF 301600 AAA
TAFGFK
TAF AMD
KGFK 301618Z 3016/3112 35018G24KT P6SM OVC014
     FM301900 35020G26KT P6SM BKN025
     FM302200 35010G15KT P6SM SCT035
     FM310100 35007KT P6SM SKC=



000
FTUS43 KFGF 301200 AAA
TAFFAR
TAF AMD
KFAR 301247Z 3013/3112 34008KT 3SM BR BKN003
     FM301330 35008KT P6SM BKN025
     FM301700 35020G27KT P6SM BKN025
     FM302300 35010G15KT P6SM SCT035
     FM310200 35007KT P6SM SKC=



000
FTUS43 KFGF 301100
TAFGFK
TAF
KGFK 301135Z 3012/3112 34008KT P6SM BKN040
     FM301300 35014KT P6SM OVC025
     FM301600 35014G22KT P6SM OVC025
     FM301900 35020G26KT P6SM BKN025
     FM302200 35010G15KT P6SM SCT035
     FM310100 35007KT P6SM SKC=



000
FTUS43 KFGF 301100
TAFFAR
TAF
KFAR 301135Z 3012/3112 34008KT P6SM BKN025
     FM301300 35008KT P6SM BKN030
     FM301700 35020G27KT P6SM BKN025
     FM302300 35010G15KT P6SM SCT035
     FM310200 35007KT P6SM SKC=



000
FTUS43 KFGF 300500
TAFFAR
TAF
KFAR 300520Z 3006/3106 15006KT P6SM VCSH BKN050
     FM301000 34008KT P6SM BKN040
     FM301400 35013G21KT P6SM OVC025
     FM301800 35020G27KT P6SM OVC050
     FM302300 35010G15KT P6SM BKN100=



000
FTUS43 KFGF 300500
TAFGFK
TAF
KGFK 300520Z 3006/3106 15006KT P6SM VCSH BKN050
     FM300900 34008KT P6SM BKN040
     FM301300 35014KT P6SM OVC025
     FM301600 35014G22KT P6SM OVC025
     FM301900 35020G26KT P6SM BKN050
     FM302300 35010G15KT P6SM FEW250=



000
FTUS43 KFGF 292300
TAFGFK
TAF
KGFK 292320Z 3000/3024 15006KT P6SM VCSH BKN050
     FM300900 34008KT P6SM BKN040
     FM301300 35014KT P6SM OVC025
     FM301600 35014G22KT P6SM OVC025
     FM301900 35020G26KT P6SM BKN050=



000
FTUS43 KFGF 292300
TAFFAR
TAF
KFAR 292320Z 3000/3024 15006KT P6SM VCSH BKN050
     FM301000 34008KT P6SM BKN040
     FM301400 35013G21KT P6SM OVC025
     FM301800 35020G27KT P6SM OVC050=



000
FTUS43 KFGF 291700
TAFGFK
TAF
KGFK 291724Z 2918/3018 VRB06KT P6SM OVC025
      TEMPO 2920/2922 BKN050
     FM292200 VRB06KT P6SM BKN050
     FM300000 VRB06KT P6SM VCSH BKN050
     FM300900 34008KT P6SM BKN040=



000
FTUS43 KFGF 291700
TAFFAR
TAF
KFAR 291724Z 2918/3018 VRB06KT P6SM OVC025
      TEMPO 2920/2922 BKN050
     FM292200 VRB06KT P6SM BKN050
     FM300000 VRB06KT P6SM VCSH BKN050
     FM301100 34008KT P6SM BKN040=



    US Dept of Commerce
    National Oceanic and Atmospheric Administration
    National Weather Service
    1325 East West Highway
    Silver Spring, MD 20910
    Page Author: NWS Internet Services Team
Disclaimer
Information Quality
Credits
Glossary
Privacy Policy
Freedom of Information Act (FOIA)
About Us
Career Opportunities